Time;durP1;ratioP1;P1;durP2;ratioP2;P2;SDS_P1;SDS_P2;PMS_P1;PMS_P2;Temp;Humidity;BMP_temperature;BMP_pressure;BME280_temperature;BME280_humidity;BME280_pressure;Samples;Min_cycle;Max_cycle;Signal;HPM_P1;HPM_P2
2022/10/06 00:02:14;;;;;;;4.32;3.00;;;;;;;7.60;77.98;100672.44;4946815;28;20078;-93
2022/10/06 00:04:40;;;;;;;9.20;3.17;;;;;;;7.61;78.41;100668.69;4946853;28;20062;-93
2022/10/06 00:07:05;;;;;;;6.28;3.22;;;;;;;7.58;78.60;100663.78;4946258;28;20397;-93
2022/10/06 00:09:31;;;;;;;4.78;2.92;;;;;;;7.59;79.11;100662.72;4946742;28;20026;-93
2022/10/06 00:11:57;;;;;;;5.53;3.00;;;;;;;7.54;78.87;100665.25;4945558;28;20117;-93
2022/10/06 00:14:22;;;;;;;4.78;2.80;;;;;;;7.59;78.50;100672.63;4964201;28;20057;-93
2022/10/06 00:16:48;;;;;;;3.58;2.55;;;;;;;7.54;78.46;100665.25;4958723;28;20038;-92
2022/10/06 00:19:13;;;;;;;3.03;2.33;;;;;;;7.52;78.32;100669.19;4942430;28;20031;-93
2022/10/06 00:21:39;;;;;;;6.22;2.75;;;;;;;7.61;78.20;100683.97;4926341;28;20026;-93
2022/10/06 00:24:04;;;;;;;4.78;2.72;;;;;;;7.55;78.56;100674.94;4942947;28;20041;-94
2022/10/06 00:26:30;;;;;;;4.78;3.03;;;;;;;7.49;78.40;100660.56;4942597;28;20097;-93
2022/10/06 00:28:55;;;;;;;4.63;2.50;;;;;;;7.45;78.92;100661.19;4958309;28;20030;-93
2022/10/06 00:31:21;;;;;;;5.28;3.00;;;;;;;7.40;78.39;100645.75;4961706;28;20054;-93
2022/10/06 00:33:47;;;;;;;3.22;2.60;;;;;;;7.39;78.02;100662.88;4961510;28;20034;-93
2022/10/06 00:36:13;;;;;;;4.35;2.90;;;;;;;7.38;78.89;100650.50;4962440;28;20081;-92
2022/10/06 00:38:39;;;;;;;4.15;3.05;;;;;;;7.51;78.57;100659.50;4964850;28;20022;-93
2022/10/06 00:41:04;;;;;;;5.68;3.08;;;;;;;7.57;77.73;100654.09;4981285;28;20522;-93
2022/10/06 00:43:42;;;;;;;9.20;3.40;;;;;;;7.68;78.39;100676.72;4964816;28;20022;-93
2022/10/06 00:46:38;;;;;;;8.32;3.30;;;;;;;7.66;77.99;100660.84;5013907;28;20036;-93
2022/10/06 00:49:15;;;;;;;5.93;3.08;;;;;;;7.73;77.24;100665.34;4989008;28;20050;-93
2022/10/06 00:51:49;;;;;;;6.78;3.28;;;;;;;7.64;78.10;100660.25;4997021;28;20021;-92
2022/10/06 00:54:15;;;;;;;4.97;2.95;;;;;;;7.59;77.65;100643.97;4973795;28;20084;-93
2022/10/06 00:56:40;;;;;;;7.07;3.13;;;;;;;7.64;78.10;100654.88;4960717;28;20400;-93
2022/10/06 00:59:11;;;;;;;5.30;3.45;;;;;;;7.56;78.40;100651.66;4945070;28;20030;-93
2022/10/06 01:01:36;;;;;;;5.72;3.78;;;;;;;7.58;78.38;100665.66;4961501;28;20030;-93
2022/10/06 01:04:05;;;;;;;6.28;3.05;;;;;;;7.61;77.81;100673.25;4961768;28;20026;-93
2022/10/06 01:06:50;;;;;;;5.50;2.88;;;;;;;7.53;78.08;100665.47;4961702;28;20096;-93
2022/10/06 01:09:16;;;;;;;3.67;2.30;;;;;;;7.36;77.78;100649.91;4961653;28;20045;-93
2022/10/06 01:11:42;;;;;;;4.70;2.65;;;;;;;7.36;77.79;100643.72;4961672;28;20055;-92
2022/10/06 01:14:08;;;;;;;4.68;2.80;;;;;;;7.28;78.09;100642.13;4945064;28;20034;-92
2022/10/06 01:16:34;;;;;;;5.75;2.85;;;;;;;7.30;78.03;100642.72;4944676;28;20026;-93
2022/10/06 01:19:01;;;;;;;4.63;3.03;;;;;;;7.36;78.10;100646.41;4945297;28;20030;-93
2022/10/06 01:21:34;;;;;;;10.23;3.25;;;;;;;7.25;78.41;100634.53;4945853;28;20030;-93
2022/10/06 01:24:01;;;;;;;8.43;3.05;;;;;;;7.34;78.27;100656.50;4945516;28;20030;-93
2022/10/06 01:26:26;;;;;;;4.85;2.90;;;;;;;7.45;77.81;100659.34;4960685;28;20026;-93
2022/10/06 01:28:52;;;;;;;3.75;2.80;;;;;;;7.40;78.01;100651.09;4949354;28;20029;-93
2022/10/06 01:31:17;;;;;;;4.13;2.97;;;;;;;7.25;78.58;100631.84;4963650;28;20053;-93
2022/10/06 01:33:43;;;;;;;3.97;2.70;;;;;;;7.20;78.88;100627.13;4964198;28;20084;-93
2022/10/06 01:36:08;;;;;;;7.55;3.30;;;;;;;7.21;78.78;100638.66;4963603;28;20018;-93
2022/10/06 01:38:35;;;;;;;3.58;2.88;;;;;;;7.13;77.97;100626.34;4980676;28;20534;-93
2022/10/06 01:41:01;;;;;;;4.13;2.78;;;;;;;7.14;78.39;100635.19;4964267;28;20053;-93
2022/10/06 01:43:26;;;;;;;4.97;3.22;;;;;;;7.18;78.38;100634.56;4964122;28;20021;-93
2022/10/06 01:45:55;;;;;;;10.27;2.92;;;;;;;7.13;78.29;100628.22;4964550;28;20480;-93
2022/10/06 01:48:21;;;;;;;7.90;3.60;;;;;;;7.11;78.34;100628.41;4964321;28;20052;-93
2022/10/06 01:50:47;;;;;;;3.45;2.65;;;;;;;7.07;77.79;100630.69;4963978;28;20026;-94
2022/10/06 01:53:12;;;;;;;3.17;2.25;;;;;;;7.03;77.72;100617.94;4963565;28;20399;-93
2022/10/06 01:55:38;;;;;;;3.13;2.50;;;;;;;6.96;78.30;100612.63;4965018;28;20026;-93
2022/10/06 01:58:03;;;;;;;8.45;2.72;;;;;;;7.03;78.44;100636.69;4964338;28;20017;-93
2022/10/06 02:00:29;;;;;;;4.85;2.40;;;;;;;6.97;78.49;100618.81;4947327;28;20092;-93
2022/10/06 02:02:56;;;;;;;3.80;2.50;;;;;;;6.99;78.87;100647.03;4944455;28;20121;-93
2022/10/06 02:05:21;;;;;;;7.13;2.92;;;;;;;6.92;78.28;100630.16;4945309;28;20136;-93
2022/10/06 02:07:47;;;;;;;3.08;2.35;;;;;;;6.87;78.54;100628.13;4960250;28;20026;-93
2022/10/06 02:10:12;;;;;;;6.47;2.72;;;;;;;6.96;78.57;100631.38;4960108;28;20033;-93
2022/10/06 02:12:38;;;;;;;2.85;2.35;;;;;;;6.90;78.33;100629.56;4963706;28;20044;-93
2022/10/06 02:15:05;;;;;;;4.20;2.58;;;;;;;6.92;77.89;100619.44;4963605;28;20033;-93
2022/10/06 02:17:30;;;;;;;5.97;2.58;;;;;;;7.07;77.70;100629.88;4963978;28;20369;-93
2022/10/06 02:19:56;;;;;;;8.88;2.70;;;;;;;7.17;77.50;100627.56;4964169;28;20036;-93
2022/10/06 02:22:22;;;;;;;3.55;2.55;;;;;;;7.37;76.45;100634.66;4963265;28;20499;-93
2022/10/06 02:24:47;;;;;;;3.75;2.42;;;;;;;7.49;75.77;100644.47;4980049;28;20034;-93
2022/10/06 02:27:13;;;;;;;4.25;2.53;;;;;;;7.47;75.93;100637.66;4965979;28;20033;-94
2022/10/06 02:29:38;;;;;;;4.20;2.65;;;;;;;7.49;75.69;100633.75;4966588;28;20526;-91
2022/10/06 02:32:04;;;;;;;5.15;2.53;;;;;;;7.26;76.18;100622.75;4967049;28;20483;-92
2022/10/06 02:34:30;;;;;;;4.82;2.70;;;;;;;7.17;77.28;100616.03;4957810;28;20034;-93
2022/10/06 02:36:56;;;;;;;6.53;2.45;;;;;;;7.31;77.04;100632.84;4947527;28;20034;-93
2022/10/06 02:39:21;;;;;;;3.55;2.35;;;;;;;7.19;76.97;100630.03;4947848;28;20057;-93
2022/10/06 02:41:47;;;;;;;5.63;2.55;;;;;;;7.13;77.38;100626.34;4947637;28;20030;-93
2022/10/06 02:44:12;;;;;;;4.63;2.45;;;;;;;6.99;77.90;100614.91;4947366;28;20034;-92
2022/10/06 02:46:38;;;;;;;3.78;2.47;;;;;;;6.98;77.50;100620.47;4947885;28;20041;-93
2022/10/06 02:49:03;;;;;;;6.03;2.63;;;;;;;6.95;77.22;100613.69;4947342;28;20031;-93
2022/10/06 02:51:30;;;;;;;3.58;2.20;;;;;;;7.02;77.24;100627.84;4963691;28;20693;-93
2022/10/06 02:53:55;;;;;;;2.38;2.10;;;;;;;6.92;77.71;100615.97;4947550;28;20085;-93
2022/10/06 02:56:22;;;;;;;3.05;2.42;;;;;;;6.99;77.29;100619.41;4947762;28;20479;-93
2022/10/06 02:58:48;;;;;;;2.88;2.05;;;;;;;7.00;76.28;100603.13;4947457;28;20036;-93
2022/10/06 03:01:19;;;;;;;4.25;2.03;;;;;;;7.20;75.99;100610.22;4947699;28;20061;-93
2022/10/06 03:03:45;;;;;;;2.67;1.75;;;;;;;7.35;75.30;100620.66;4967519;28;20092;-93
2022/10/06 03:06:28;;;;;;;2.13;1.70;;;;;;;7.45;74.73;100619.16;4967087;28;20032;-94
2022/10/06 03:08:53;;;;;;;3.50;2.03;;;;;;;7.64;74.25;100635.31;4966861;28;20510;-93
2022/10/06 03:11:20;;;;;;;5.65;2.20;;;;;;;7.46;74.38;100607.38;4998476;28;20025;-94
2022/10/06 03:13:46;;;;;;;2.63;1.92;;;;;;;7.45;74.14;100611.09;4962153;28;20503;-93
2022/10/06 03:16:22;;;;;;;2.28;1.83;;;;;;;7.59;74.30;100640.47;4947219;28;20023;-93
2022/10/06 03:18:52;;;;;;;4.85;1.90;;;;;;;7.48;73.98;100605.28;4947429;28;20138;-93
2022/10/06 03:21:18;;;;;;;3.72;2.13;;;;;;;7.43;73.80;100607.81;4963856;28;20097;-93
2022/10/06 03:23:45;;;;;;;4.65;2.28;;;;;;;7.37;74.47;100603.31;4962980;28;20030;-92
2022/10/06 03:26:10;;;;;;;2.20;1.83;;;;;;;7.59;73.94;100621.72;4962533;28;20050;-91
2022/10/06 03:28:36;;;;;;;4.65;2.30;;;;;;;7.35;74.93;100616.13;4962764;28;20064;-94
2022/10/06 03:31:02;;;;;;;3.30;2.28;;;;;;;7.11;75.92;100606.97;4962168;28;20049;-91
2022/10/06 03:33:33;;;;;;;3.97;2.53;;;;;;;7.04;76.41;100600.84;4963596;28;20054;-94
2022/10/06 03:36:08;;;;;;;3.05;2.20;;;;;;;6.96;76.56;100607.28;4947201;28;20032;-94
2022/10/06 03:38:34;;;;;;;2.95;1.95;;;;;;;7.17;75.54;100608.00;4965223;28;20089;-94
2022/10/06 03:41:13;;;;;;;3.65;2.30;;;;;;;7.27;75.68;100619.06;4965744;28;20033;-94
2022/10/06 03:43:39;;;;;;;3.30;2.30;;;;;;;7.39;74.85;100611.97;4982116;28;20026;-94
2022/10/06 03:46:05;;;;;;;2.28;1.75;;;;;;;7.45;74.60;100613.78;4965659;28;20088;-93
2022/10/06 03:48:32;;;;;;;2.67;1.90;;;;;;;7.53;74.09;100625.25;4983272;28;20026;-93
2022/10/06 03:51:11;;;;;;;3.08;1.77;;;;;;;7.46;74.44;100623.44;4982230;28;20026;-94
2022/10/06 03:53:36;;;;;;;5.22;1.58;;;;;;;7.57;73.96;100635.31;4982812;28;20108;-95
2022/10/06 03:56:31;;;;;;;3.22;2.08;;;;;;;7.44;74.70;100630.88;4981662;28;20069;-94
2022/10/06 03:59:01;;;;;;;3.72;2.10;;;;;;;7.47;74.14;100625.09;4982716;28;20168;-95
2022/10/06 04:01:34;;;;;;;3.15;2.15;;;;;;;7.49;73.90;100630.22;4966691;28;20029;-93
2022/10/06 04:04:00;;;;;;;3.22;2.10;;;;;;;7.62;73.37;100642.75;4974252;28;20030;-95
2022/10/06 04:06:26;;;;;;;2.78;2.17;;;;;;;7.56;73.13;100632.88;4954040;28;20023;-95
2022/10/06 04:08:55;;;;;;;4.70;1.95;;;;;;;7.45;73.34;100620.97;4946426;28;20031;-94
2022/10/06 04:11:23;;;;;;;5.40;3.00;;;;;;;7.19;74.75;100628.16;4949660;28;20034;-95
2022/10/06 04:13:52;;;;;;;5.38;3.45;;;;;;;7.07;75.44;100622.66;4969589;28;20038;-94
2022/10/06 04:16:27;;;;;;;2.85;2.38;;;;;;;7.19;75.33;100632.72;4960533;28;20036;-96
2022/10/06 04:19:02;;;;;;;6.78;2.40;;;;;;;7.17;75.89;100621.38;4984029;28;20029;-96
2022/10/06 04:21:28;;;;;;;6.75;3.03;;;;;;;6.93;76.32;100613.06;4963146;28;20038;-95
2022/10/06 04:23:55;;;;;;;3.55;2.42;;;;;;;7.00;76.00;100629.91;4969806;28;20034;-96
2022/10/06 04:26:21;;;;;;;5.68;2.97;;;;;;;6.92;77.14;100629.34;4948060;28;20065;-96
2022/10/06 04:28:46;;;;;;;5.68;2.75;;;;;;;6.84;76.86;100611.66;4963333;28;20026;-96
2022/10/06 04:31:16;;;;;;;3.42;2.55;;;;;;;6.95;76.62;100643.13;4963150;28;20054;-96
2022/10/06 04:33:42;;;;;;;4.20;2.60;;;;;;;6.71;76.41;100625.13;4980536;28;20121;-95
2022/10/06 04:36:09;;;;;;;4.72;2.63;;;;;;;6.77;76.76;100634.97;4964315;28;20042;-94
2022/10/06 04:38:35;;;;;;;5.22;3.35;;;;;;;6.84;76.29;100643.78;4961112;28;20059;-96
2022/10/06 04:41:05;;;;;;;5.22;2.92;;;;;;;6.66;76.72;100629.25;4951402;28;20041;-96
2022/10/06 04:43:32;;;;;;;7.03;2.83;;;;;;;6.70;76.52;100640.31;4956238;28;20042;-95
2022/10/06 04:45:58;;;;;;;5.13;2.75;;;;;;;6.61;76.59;100631.72;4953960;28;20034;-95
2022/10/06 04:48:25;;;;;;;10.02;3.40;;;;;;;6.44;77.00;100617.16;4963972;28;20476;-93
2022/10/06 04:51:18;;;;;;;8.65;4.30;;;;;;;6.62;76.65;100636.06;4966046;28;20029;-95
2022/10/06 04:53:43;;;;;;;8.43;4.25;;;;;;;6.60;76.67;100624.75;4963968;28;20097;-93
2022/10/06 04:56:23;;;;;;;7.82;3.35;;;;;;;6.71;76.47;100633.97;4959034;28;20129;-94
2022/10/06 04:58:49;;;;;;;6.05;3.28;;;;;;;6.92;76.76;100643.53;4974555;28;20018;-96
2022/10/06 05:01:28;;;;;;;6.15;3.97;;;;;;;6.95;75.91;100621.72;4969034;28;20029;-96
2022/10/06 05:03:55;;;;;;;9.60;4.63;;;;;;;7.12;76.17;100639.94;4969237;28;20028;-95
2022/10/06 05:06:56;;;;;;;11.65;3.92;;;;;;;7.03;76.12;100613.41;4958268;28;20018;-95
2022/10/06 05:09:26;;;;;;;3.60;2.58;;;;;;;7.22;75.87;100635.78;4878963;29;20076;-96
2022/10/06 05:11:52;;;;;;;3.50;2.28;;;;;;;7.40;74.68;100626.19;4950758;28;20041;-90
2022/10/06 05:14:18;;;;;;;3.88;2.28;;;;;;;7.56;73.88;100648.97;4985520;28;20030;-96
2022/10/06 05:16:44;;;;;;;3.97;3.00;;;;;;;7.57;74.17;100651.41;4965321;28;20038;-96
2022/10/06 05:19:10;;;;;;;5.13;2.60;;;;;;;7.56;73.49;100632.88;4955650;28;20123;-95
2022/10/06 05:21:36;;;;;;;32.70;18.23;;;;;;;7.64;73.59;100629.94;5002418;28;20062;-94
2022/10/06 05:24:05;;;;;;;10.23;5.78;;;;;;;7.74;74.06;100653.56;4970395;28;20025;-95
2022/10/06 05:26:32;;;;;;;10.70;3.92;;;;;;;7.62;74.22;100640.06;4983100;28;20029;-94
2022/10/06 05:28:58;;;;;;;7.13;4.65;;;;;;;7.59;74.01;100643.97;4964634;28;20026;-93
2022/10/06 05:31:32;;;;;;;7.85;2.40;;;;;;;7.72;73.86;100650.28;4964834;28;20045;-93
2022/10/06 05:34:01;;;;;;;4.95;2.50;;;;;;;7.84;73.86;100651.22;4965158;28;20056;-95
2022/10/06 05:36:28;;;;;;;9.93;3.15;;;;;;;7.91;74.08;100657.34;4948353;28;20088;-96
2022/10/06 05:39:45;;;;;;;4.82;3.42;;;;;;;7.84;73.98;100643.16;4952439;28;20011;-96
2022/10/06 05:42:32;;;;;;;10.55;4.22;;;;;;;8.12;73.38;100666.88;4907504;29;20037;-96
2022/10/06 05:55:14;;;;;;;6.28;2.88;;;;;;;8.39;72.33;100639.78;5000142;28;20050;-96
2022/10/06 05:57:40;;;;;;;7.50;5.78;;;;;;;8.41;72.06;100640.41;4971605;28;20029;-95
2022/10/06 06:00:09;;;;;;;5.07;3.05;;;;;;;8.43;72.58;100633.78;4969241;28;20026;-95
2022/10/06 06:02:51;;;;;;;8.10;3.20;;;;;;;8.37;71.75;100625.78;4976834;28;20093;-96
2022/10/06 06:05:50;;;;;;;19.23;7.65;;;;;;;8.47;71.60;100621.56;4959182;28;20111;-96
2022/10/06 06:08:19;;;;;;;11.57;3.20;;;;;;;8.76;71.60;100631.75;4954571;29;20047;-96
2022/10/06 06:10:47;;;;;;;4.43;2.97;;;;;;;8.78;71.22;100633.19;4936555;29;20122;-96
2022/10/06 06:13:34;;;;;;;40.40;5.63;;;;;;;8.86;71.14;100638.25;4940850;29;20031;-96
2022/10/06 06:16:00;;;;;;;9.20;3.45;;;;;;;9.04;70.79;100655.38;4941695;28;20033;-96
2022/10/06 06:18:31;;;;;;;7.68;3.78;;;;;;;9.05;70.44;100640.91;4941340;28;20027;-94
2022/10/06 06:21:06;;;;;;;10.90;3.95;;;;;;;9.10;69.98;100627.59;4968269;28;20054;-95
2022/10/06 06:23:38;;;;;;;6.38;3.22;;;;;;;9.45;69.08;100638.47;4944764;28;20045;-93
2022/10/06 06:26:27;;;;;;;;;;;;;;;9.56;69.46;100650.28;4952249;28;20062;-96
2022/10/06 06:28:54;;;;;;;7.63;3.58;;;;;;;9.61;68.76;100633.50;4962650;28;19918;-95
2022/10/06 06:31:20;;;;;;;3.83;2.85;;;;;;;9.77;67.85;100631.97;4960865;28;20485;-95
2022/10/06 06:33:46;;;;;;;5.22;3.38;;;;;;;9.89;68.25;100630.94;4942771;28;20102;-94
2022/10/06 06:36:34;;;;;;;9.35;4.57;;;;;;;10.01;67.63;100644.41;4976879;28;20062;-95
2022/10/06 06:38:59;;;;;;;5.65;3.10;;;;;;;10.12;66.96;100640.88;4984550;28;20034;-96
2022/10/06 06:41:29;;;;;;;6.00;3.97;;;;;;;10.20;66.53;100620.88;4968412;28;20070;-96
2022/10/06 06:44:05;;;;;;;;;;;;;;;;;;;;;
2022/10/06 06:46:42;;;;;;;4.32;3.00;;;;;;;10.48;65.74;100649.00;4989512;28;20042;-96
2022/10/06 06:49:10;;;;;;;4.25;2.60;;;;;;;10.63;65.98;100646.63;4976671;28;20022;-96
2022/10/06 06:51:40;;;;;;;6.40;4.10;;;;;;;10.56;65.73;100628.94;4970332;28;20101;-94
2022/10/06 06:54:21;;;;;;;5.82;3.72;;;;;;;10.75;65.80;100648.44;4959331;28;20038;-96
2022/10/06 07:02:02;;;;;;;6.22;4.70;;;;;;;11.10;65.64;100645.66;5026653;28;20050;-94
2022/10/06 07:04:27;;;;;;;5.75;4.03;;;;;;;11.17;65.49;100635.56;4979244;28;20484;-93
2022/10/06 07:06:56;;;;;;;11.15;5.47;;;;;;;11.17;65.41;100651.72;4994901;28;20040;-96
2022/10/06 07:09:45;;;;;;;;;;;;;;;;;;;;;
2022/10/06 07:27:07;;;;;;;4.90;3.25;;;;;;;12.09;61.00;100645.22;4992822;28;20075;-96
2022/10/06 07:29:44;;;;;;;4.25;2.75;;;;;;;12.32;60.84;100646.91;4969651;28;20117;-96
2022/10/06 07:32:29;;;;;;;3.90;2.40;;;;;;;12.53;60.46;100630.97;4974274;28;20030;-96
2022/10/06 07:34:55;;;;;;;9.13;4.57;;;;;;;12.76;60.31;100629.09;4963616;28;20097;-93
2022/10/06 07:37:20;;;;;;;6.53;3.55;;;;;;;12.99;59.40;100636.94;4964326;28;20065;-94
2022/10/06 07:39:49;;;;;;;4.88;2.80;;;;;;;12.96;59.69;100621.22;4957841;28;20034;-95
2022/10/06 07:42:27;;;;;;;3.45;2.90;;;;;;;13.14;59.24;100626.28;4960887;28;20073;-96
2022/10/06 07:47:39;;;;;;;4.05;3.00;;;;;;;13.46;58.46;100641.78;4974599;28;20029;-95
2022/10/06 07:50:10;;;;;;;6.50;2.85;;;;;;;13.59;58.22;100632.41;4977746;28;20274;-94
2022/10/06 07:52:39;;;;;;;7.82;3.38;;;;;;;13.63;58.33;100608.38;4957168;28;20444;-96
2022/10/06 07:55:12;;;;;;;5.88;2.78;;;;;;;13.79;58.59;100615.53;4964555;28;20038;-94
2022/10/06 07:57:44;;;;;;;4.57;2.60;;;;;;;14.00;58.04;100615.69;4952232;28;20039;-96
2022/10/06 08:03:53;;;;;;;6.67;2.87;;;;;;;14.06;55.25;100617.34;5010857;28;20069;-96
2022/10/06 08:06:19;;;;;;;4.70;2.35;;;;;;;14.29;55.16;100605.31;4963730;28;20045;-95
2022/10/06 08:08:45;;;;;;;2.45;1.77;;;;;;;14.27;54.71;100594.72;4947197;28;20026;-96
2022/10/06 08:11:22;;;;;;;5.05;2.00;;;;;;;14.53;54.62;100605.69;4963174;28;20476;-94
2022/10/06 08:13:48;;;;;;;5.70;3.10;;;;;;;14.65;55.47;100619.88;4966602;28;20380;-92
2022/10/06 08:16:15;;;;;;;3.13;1.70;;;;;;;14.73;54.00;100596.84;4969625;28;20088;-92
2022/10/06 08:18:41;;;;;;;2.47;1.90;;;;;;;15.07;53.31;100613.50;4976528;28;20129;-95
2022/10/06 08:21:23;;;;;;;4.00;2.83;;;;;;;15.11;53.50;100594.78;4974582;28;20030;-95
2022/10/06 08:23:51;;;;;;;6.30;2.55;;;;;;;15.21;52.93;100589.38;4967012;28;20415;-94
2022/10/06 08:26:17;;;;;;;12.23;8.77;;;;;;;15.22;53.34;100592.91;4956585;28;20030;-92
2022/10/06 08:28:51;;;;;;;6.65;5.00;;;;;;;15.47;52.74;100597.53;4972068;28;20026;-93
2022/10/06 08:31:18;;;;;;;4.00;2.58;;;;;;;15.52;51.46;100578.53;4961125;28;20418;-93
2022/10/06 08:34:01;;;;;;;18.38;5.53;;;;;;;15.70;50.42;100574.47;4973187;28;20029;-95
2022/10/06 08:36:50;;;;;;;7.15;2.40;;;;;;;15.94;48.92;100589.13;4968147;28;20026;-95
2022/10/06 08:39:16;;;;;;;3.45;1.80;;;;;;;16.02;48.85;100589.66;4978341;28;20076;-92
2022/10/06 08:41:47;;;;;;;8.88;1.95;;;;;;;15.95;48.54;100569.00;4966107;28;20103;-96
2022/10/06 08:44:15;;;;;;;4.57;2.13;;;;;;;16.20;49.18;100588.25;4949879;28;20022;-96
2022/10/06 08:47:22;;;;;;;3.55;1.95;;;;;;;16.14;47.09;100569.25;4981380;28;20037;-95
2022/10/06 08:49:49;;;;;;;5.70;4.78;;;;;;;16.24;48.32;100565.69;4923264;29;20383;-95
2022/10/06 08:52:40;;;;;;;3.95;2.70;;;;;;;16.51;47.61;100588.97;4889391;29;20035;-96
2022/10/06 08:55:22;;;;;;;3.05;1.90;;;;;;;16.57;45.11;100568.81;4961177;28;20092;-96
2022/10/06 08:58:02;;;;;;;3.72;1.90;;;;;;;16.68;44.58;100561.44;4967508;28;20026;-96
2022/10/06 09:00:31;;;;;;;3.35;1.90;;;;;;;16.71;44.35;100564.41;4976361;28;20030;-95
2022/10/06 09:03:01;;;;;;;4.43;2.28;;;;;;;16.79;45.55;100571.16;4968762;28;20034;-93
2022/10/06 09:05:30;;;;;;;4.15;2.33;;;;;;;16.94;46.46;100583.91;4954881;28;20041;-95
2022/10/06 09:07:58;;;;;;;2.53;1.50;;;;;;;17.02;45.35;100587.94;4950034;28;20035;-96
2022/10/06 09:10:55;;;;;;;4.93;1.95;;;;;;;17.12;46.15;100590.56;4982953;28;20030;-96
2022/10/06 09:17:03;;;;;;;2.95;1.80;;;;;;;17.00;45.45;100566.44;4992908;28;20056;-94
2022/10/06 09:19:52;;;;;;;2.67;1.55;;;;;;;17.20;46.22;100583.72;4959819;28;20026;-94
2022/10/06 09:22:20;;;;;;;3.45;1.77;;;;;;;17.34;46.42;100584.72;4982828;28;20030;-94
2022/10/06 09:24:49;;;;;;;2.40;1.83;;;;;;;17.29;46.09;100566.53;4956733;28;20130;-93
2022/10/06 09:27:29;;;;;;;4.22;2.13;;;;;;;17.35;46.00;100567.31;4949529;28;20109;-95
2022/10/06 09:30:00;;;;;;;1.58;1.33;;;;;;;17.46;45.90;100562.59;4950312;28;20030;-94
2022/10/06 09:32:29;;;;;;;2.10;1.40;;;;;;;17.48;45.34;100553.03;4958783;28;20050;-96
2022/10/06 09:35:03;;;;;;;3.03;1.70;;;;;;;17.63;44.84;100562.97;4960906;28;20049;-95
2022/10/06 09:37:29;;;;;;;1.80;1.30;;;;;;;17.74;44.58;100572.69;4979730;28;20040;-94
2022/10/06 09:40:44;;;;;;;2.47;1.45;;;;;;;17.67;45.12;100552.31;4955568;28;20026;-96
2022/10/06 09:43:19;;;;;;;6.22;2.08;;;;;;;17.86;45.46;100563.34;4988700;28;20038;-96
2022/10/06 09:45:45;;;;;;;2.42;1.77;;;;;;;17.77;45.75;100533.16;4986672;28;20491;-95
2022/10/06 09:48:19;;;;;;;4.30;1.60;;;;;;;17.88;45.36;100542.88;4955878;28;20026;-93
2022/10/06 09:51:11;;;;;;;2.80;1.60;;;;;;;17.84;45.07;100528.19;4962546;28;20033;-94
2022/10/06 09:53:40;;;;;;;2.20;1.70;;;;;;;17.93;44.65;100531.13;4990476;28;20025;-94
2022/10/06 09:56:57;;;;;;;3.25;2.15;;;;;;;18.17;45.19;100547.47;4987738;28;20025;-96
2022/10/06 09:59:30;;;;;;;5.18;3.20;;;;;;;18.26;44.75;100547.63;5053040;23;20040;-96
2022/10/06 10:10:42;;;;;;;5.20;1.70;;;;;;;18.37;43.34;100533.59;915272;23;20313;-93
2022/10/06 10:13:18;;;;;;;3.53;2.20;;;;;;;18.33;43.76;100520.84;4957085;28;20074;-93
2022/10/06 10:16:00;;;;;;;5.70;1.77;;;;;;;18.25;44.47;100503.19;4960836;28;20019;-91
2022/10/06 10:18:29;;;;;;;6.22;2.45;;;;;;;18.45;43.91;100517.66;4964831;28;20050;-95
2022/10/06 10:21:07;;;;;;;3.35;2.03;;;;;;;18.49;40.76;100513.25;4950706;28;20058;-96
2022/10/06 10:24:05;;;;;;;2.25;1.50;;;;;;;18.50;39.48;100507.50;4951875;28;20041;-96
2022/10/06 10:26:46;;;;;;;2.47;1.63;;;;;;;18.48;40.26;100511.63;4937511;28;20019;-96
2022/10/06 10:29:46;;;;;;;1.97;1.47;;;;;;;18.37;41.03;100486.44;4957351;28;20130;-96
2022/10/06 10:32:38;;;;;;;3.50;1.40;;;;;;;18.49;41.10;100495.00;4972825;28;20034;-94
2022/10/06 10:35:40;;;;;;;;;;;;;;;18.44;41.16;100516.84;4925202;29;20043;-96
2022/10/06 10:38:30;;;;;;;2.13;1.48;;;;;;;18.41;41.21;100490.19;4908405;29;20405;-96
2022/10/06 10:41:08;;;;;;;2.40;1.50;;;;;;;18.45;41.10;100487.66;4896099;29;20035;-95
2022/10/06 10:43:41;;;;;;;2.05;1.27;;;;;;;18.44;40.32;100488.78;4893995;29;20161;-96
2022/10/06 10:46:33;;;;;;;2.45;1.50;;;;;;;18.65;40.40;100502.94;4911848;29;20058;-94
2022/10/06 10:49:18;;;;;;;3.00;1.60;;;;;;;18.66;40.52;100494.47;4910964;29;20046;-94
2022/10/06 10:52:10;;;;;;;2.45;1.58;;;;;;;18.59;41.13;100480.38;4898616;29;20513;-96
2022/10/06 10:54:52;;;;;;;2.22;1.60;;;;;;;18.63;40.42;100484.13;4932628;29;20043;-96
2022/10/06 10:57:21;;;;;;;3.58;1.85;;;;;;;18.70;40.02;100481.06;4887800;29;20703;-95
2022/10/06 11:00:09;;;;;;;4.97;1.90;;;;;;;18.77;39.91;100476.84;4908956;29;20103;-93
2022/10/06 11:03:01;;;;;;;8.32;5.72;;;;;;;18.73;38.85;100464.09;4918926;29;20134;-95
2022/10/06 11:05:45;;;;;;;6.65;2.47;;;;;;;18.81;38.85;100481.75;4916334;28;20126;-95
2022/10/06 11:11:36;;;;;;;2.55;1.52;;;;;;;18.78;37.92;100485.84;4989540;28;20081;-96
2022/10/06 11:14:08;;;;;;;2.78;1.30;;;;;;;18.74;37.51;100479.38;4982204;28;20045;-94
2022/10/06 11:16:52;;;;;;;3.47;1.48;;;;;;;18.77;37.40;100452.28;4985438;28;20034;-94
2022/10/06 11:19:41;;;;;;;2.05;1.35;;;;;;;18.90;37.15;100479.94;4952800;28;20659;-94
2022/10/06 11:22:25;;;;;;;2.20;1.30;;;;;;;18.92;36.99;100470.34;4970100;28;20038;-94
2022/10/06 11:25:18;;;;;;;2.65;1.40;;;;;;;19.01;36.78;100475.97;4984481;28;20030;-95
2022/10/06 11:28:23;;;;;;;;;;;;;;;;;;;;;
2022/10/06 11:30:59;;;;;;;2.15;1.33;;;;;;;19.11;36.07;100464.06;4996879;28;20026;-95
2022/10/06 11:37:14;;;;;;;1.45;1.10;;;;;;;19.20;35.55;100459.53;5003079;28;20172;-93
2022/10/06 11:40:14;;;;;;;2.17;1.30;;;;;;;19.20;35.17;100453.28;4991794;28;20034;-92
2022/10/06 11:43:09;;;;;;;10.98;7.05;;;;;;;19.17;34.88;100441.00;4974643;28;20042;-93
2022/10/06 11:45:51;;;;;;;2.28;1.35;;;;;;;19.34;33.80;100441.28;4953139;28;20033;-93
2022/10/06 11:48:24;;;;;;;;;;;;;;;19.40;34.51;100444.69;4978845;28;20030;-94
2022/10/06 11:50:54;;;;;;;2.90;1.27;;;;;;;19.26;32.88;100422.00;4980567;28;20367;-93
2022/10/06 11:53:34;;;;;;;1.50;0.80;;;;;;;19.46;33.06;100440.75;4979745;28;20102;-93
2022/10/06 11:56:18;;;;;;;2.92;1.75;;;;;;;19.57;33.44;100444.13;4997412;28;20049;-93
2022/10/06 11:58:50;;;;;;;2.25;1.20;;;;;;;19.64;33.12;100438.25;4985087;28;20128;-93
2022/10/06 12:01:37;;;;;;;1.73;1.05;;;;;;;19.62;32.42;100440.50;5008910;28;20029;-93
2022/10/06 12:04:09;;;;;;;2.47;1.33;;;;;;;19.69;32.97;100440.88;4994609;28;20057;-93
2022/10/06 12:06:40;;;;;;;2.03;1.38;;;;;;;19.56;31.74;100440.56;4987626;28;20478;-92
2022/10/06 12:09:24;;;;;;;;;;;;;;;19.69;32.36;100430.75;5006119;28;20403;-93
2022/10/06 12:12:18;;;;;;;1.23;0.90;;;;;;;19.70;31.79;100426.13;5009377;28;19971;-94
2022/10/06 12:14:53;;;;;;;0.98;0.88;;;;;;;19.64;29.75;100416.41;4985191;28;20040;-93
2022/10/06 12:17:20;;;;;;;1.48;0.90;;;;;;;19.67;29.75;100419.34;4978113;28;20030;-93
2022/10/06 12:20:05;;;;;;;1.70;1.00;;;;;;;19.78;30.14;100411.78;4984634;28;20084;-95
2022/10/06 12:22:39;;;;;;;3.22;1.77;;;;;;;19.76;29.53;100403.88;4984321;28;20022;-95
2022/10/06 12:25:31;;;;;;;1.08;0.80;;;;;;;19.87;30.04;100428.28;4991235;28;20049;-94
2022/10/06 12:28:15;;;;;;;2.40;1.00;;;;;;;19.65;30.10;100383.31;4978842;28;20038;-93
2022/10/06 12:31:00;;;;;;;1.90;0.90;;;;;;;19.93;30.00;100416.91;4987776;28;20428;-95
2022/10/06 12:33:41;;;;;;;1.27;0.80;;;;;;;19.86;29.49;100396.56;4986446;28;20033;-96
2022/10/06 12:36:30;;;;;;;1.88;1.15;;;;;;;19.92;29.81;100407.13;4954469;28;20514;-94
2022/10/06 12:39:03;;;;;;;1.50;1.00;;;;;;;19.93;30.22;100402.44;4987040;28;20115;-93
2022/10/06 12:42:00;;;;;;;1.00;0.80;;;;;;;19.88;29.80;100403.38;4969530;28;20034;-95
2022/10/06 12:44:39;;;;;;;1.85;0.90;;;;;;;19.87;30.28;100382.59;4984933;28;20108;-96
2022/10/06 12:47:48;;;;;;;5.10;2.13;;;;;;;19.93;30.55;100402.44;4974106;28;20037;-96
2022/10/06 12:50:44;;;;;;;4.25;1.50;;;;;;;19.95;31.27;100378.34;5021562;28;20033;-95
2022/10/06 12:53:31;;;;;;;1.85;1.00;;;;;;;19.88;30.43;100383.41;4955515;28;20412;-93
2022/10/06 12:56:13;;;;;;;7.47;4.93;;;;;;;19.88;30.93;100386.13;4970056;28;20033;-94
2022/10/06 12:58:47;;;;;;;1.33;0.80;;;;;;;19.85;30.38;100387.56;4982993;28;20033;-94
2022/10/06 13:01:21;;;;;;;3.15;0.95;;;;;;;19.87;30.90;100390.00;4966130;28;20026;-96